createdAt,value
2018-02-14T00:00:53.478Z,52.22
2018-02-14T00:01:53.448Z,52.60
2018-02-14T00:02:53.432Z,51.75
2018-02-14T00:03:53.413Z,50.24
2018-02-14T00:04:53.387Z,48.93
2018-02-14T00:05:53.367Z,48.74
2018-02-14T00:06:53.353Z,49.11
2018-02-14T00:07:53.333Z,48.64
2018-02-14T00:08:53.317Z,45.81
2018-02-14T00:09:53.282Z,45.72
2018-02-14T00:10:53.259Z,47.23
2018-02-14T00:11:53.243Z,48.36
2018-02-14T00:12:53.220Z,49.30
2018-02-14T00:13:53.203Z,50.24
2018-02-14T00:14:53.179Z,50.62
2018-02-14T00:15:53.158Z,50.90
2018-02-14T00:16:53.135Z,50.90
2018-02-14T00:17:53.116Z,51.09
2018-02-14T00:18:53.095Z,50.71
2018-02-14T00:19:53.075Z,49.87
2018-02-14T00:20:53.049Z,49.02
2018-02-14T00:21:53.029Z,49.30
2018-02-14T00:22:53.003Z,49.77
2018-02-14T00:23:52.993Z,50.71
2018-02-14T00:24:52.965Z,50.34
2018-02-14T00:25:52.945Z,50.90
2018-02-14T00:26:52.927Z,51.18
2018-02-14T00:27:52.902Z,51.75
2018-02-14T00:28:52.887Z,52.03
2018-02-14T00:29:52.857Z,52.41
2018-02-14T00:30:52.840Z,52.13
2018-02-14T00:31:52.817Z,51.94
2018-02-14T00:32:52.795Z,51.75
2018-02-14T00:33:52.777Z,52.03
2018-02-14T00:34:52.755Z,51.94
2018-02-14T00:35:52.731Z,51.56
2018-02-14T00:36:52.707Z,51.66
2018-02-14T00:37:52.698Z,51.75
2018-02-14T00:38:52.665Z,52.03
2018-02-14T00:39:52.649Z,51.84
2018-02-14T00:40:52.629Z,50.52
2018-02-14T00:41:52.605Z,50.52
2018-02-14T00:42:52.587Z,49.96
2018-02-14T00:43:52.571Z,49.77
2018-02-14T00:44:52.545Z,49.11
2018-02-14T00:45:52.529Z,49.21
2018-02-14T00:46:52.509Z,49.21
2018-02-14T00:47:52.483Z,48.93
2018-02-14T00:48:52.463Z,48.64
2018-02-14T00:49:52.431Z,48.93
2018-02-14T00:50:52.415Z,49.21
2018-02-14T00:51:52.394Z,48.45
2018-02-14T00:52:52.372Z,47.98
2018-02-14T00:53:52.357Z,47.89
2018-02-14T00:54:52.335Z,47.79
2018-02-14T00:55:52.305Z,48.08
2018-02-14T00:56:52.286Z,48.93
2018-02-14T00:57:52.268Z,48.74
2018-02-14T00:58:52.245Z,48.93
2018-02-14T00:59:52.221Z,48.93
2018-02-14T01:00:52.204Z,48.08
2018-02-14T01:01:52.180Z,47.41
2018-02-14T01:02:52.160Z,47.13
2018-02-14T01:03:52.139Z,46.85
2018-02-14T01:04:52.120Z,46.94
2018-02-14T01:05:52.097Z,46.94
2018-02-14T01:06:52.075Z,47.41
2018-02-14T01:07:52.057Z,46.94
2018-02-14T01:08:52.035Z,47.13
2018-02-14T01:09:52.015Z,47.04
2018-02-14T01:10:51.994Z,46.38
2018-02-14T01:11:51.969Z,45.90
2018-02-14T01:12:51.949Z,46.19
2018-02-14T01:13:51.931Z,47.32
2018-02-14T01:14:51.910Z,47.23
2018-02-14T01:15:51.892Z,45.90
2018-02-14T01:16:51.865Z,46.00
2018-02-14T01:17:51.844Z,47.04
2018-02-14T01:18:51.817Z,47.32
2018-02-14T01:19:51.806Z,46.28
2018-02-14T01:20:51.784Z,46.00
2018-02-14T01:21:51.763Z,45.81
2018-02-14T01:22:51.741Z,45.81
2018-02-14T01:23:51.717Z,43.93
2018-02-14T01:24:51.703Z,43.36
2018-02-14T01:25:51.670Z,43.46
2018-02-14T01:26:51.660Z,43.55
2018-02-14T01:27:51.636Z,44.31
2018-02-14T01:28:51.612Z,46.09
2018-02-14T01:29:51.588Z,44.78
2018-02-14T01:30:51.570Z,43.74
2018-02-14T01:31:51.553Z,43.46
2018-02-14T01:32:51.530Z,44.78
2018-02-14T01:33:51.510Z,45.72
2018-02-14T01:34:51.488Z,46.09
2018-02-14T01:35:51.463Z,46.85
2018-02-14T01:36:51.446Z,47.23
2018-02-14T01:37:51.422Z,48.93
2018-02-14T01:38:51.400Z,49.11
2018-02-14T01:39:51.382Z,49.30
2018-02-14T01:40:51.359Z,50.24
2018-02-14T01:41:51.339Z,50.43
2018-02-14T01:42:51.318Z,50.71
2018-02-14T01:43:51.298Z,50.81
2018-02-14T01:44:51.276Z,50.24
2018-02-14T01:45:51.249Z,49.30
2018-02-14T01:46:51.235Z,48.93
2018-02-14T01:47:51.208Z,48.74
2018-02-14T01:48:51.189Z,48.93
2018-02-14T01:49:51.168Z,49.02
2018-02-14T01:50:51.150Z,48.74
2018-02-14T01:51:51.128Z,47.41
2018-02-14T01:52:51.104Z,47.60
2018-02-14T01:53:51.086Z,48.08
2018-02-14T01:54:51.058Z,48.93
2018-02-14T01:55:51.040Z,49.49
2018-02-14T01:56:51.020Z,50.24
2018-02-14T01:57:50.996Z,50.71
2018-02-14T01:58:50.976Z,50.90
2018-02-14T01:59:50.958Z,49.87
2018-02-14T02:00:50.936Z,48.93
2018-02-14T02:01:50.918Z,47.23
2018-02-14T02:02:50.900Z,46.28
2018-02-14T02:03:50.876Z,45.81
2018-02-14T02:04:50.854Z,45.72
2018-02-14T02:05:50.830Z,46.00
2018-02-14T02:06:50.807Z,46.38
2018-02-14T02:07:50.786Z,47.23
2018-02-14T02:08:50.768Z,48.08
2018-02-14T02:09:50.748Z,49.02
2018-02-14T02:10:50.720Z,48.93
2018-02-14T02:11:50.705Z,49.96
2018-02-14T02:12:50.681Z,50.71
2018-02-14T02:13:50.657Z,51.28
2018-02-14T02:14:50.644Z,51.66
2018-02-14T02:15:50.622Z,51.37
2018-02-14T02:16:50.600Z,51.75
2018-02-14T02:17:50.577Z,51.56
2018-02-14T02:18:50.556Z,52.22
2018-02-14T02:19:50.534Z,51.75
2018-02-14T02:20:50.514Z,51.18
2018-02-14T02:21:50.492Z,50.71
2018-02-14T02:22:50.467Z,48.36
2018-02-14T02:23:50.448Z,46.56
2018-02-14T02:24:50.434Z,45.53
2018-02-14T02:25:50.407Z,45.72
2018-02-14T02:26:50.388Z,46.47
2018-02-14T02:27:50.363Z,47.89
2018-02-14T02:28:50.338Z,49.02
2018-02-14T02:29:50.324Z,49.87
2018-02-14T02:30:50.300Z,49.87
2018-02-14T02:31:50.286Z,50.05
2018-02-14T02:32:50.256Z,49.87
2018-02-14T02:33:50.238Z,49.87
2018-02-14T02:34:50.218Z,50.43
2018-02-14T02:35:50.194Z,51.28
2018-02-14T02:36:50.178Z,51.94
2018-02-14T02:37:50.152Z,51.75
2018-02-14T02:38:50.137Z,51.75
2018-02-14T02:39:50.110Z,52.13
2018-02-14T02:40:50.092Z,50.81
2018-02-14T02:41:50.064Z,49.68
2018-02-14T02:42:50.049Z,48.83
2018-02-14T02:43:50.028Z,49.49
2018-02-14T02:44:50.004Z,50.24
2018-02-14T02:45:49.984Z,50.90
2018-02-14T02:46:49.960Z,51.56
2018-02-14T02:47:49.942Z,51.37
2018-02-14T02:48:49.924Z,51.28
2018-02-14T02:49:49.895Z,51.75
2018-02-14T02:50:49.876Z,51.94
2018-02-14T02:51:49.858Z,52.13
2018-02-14T02:52:49.836Z,51.94
2018-02-14T02:53:49.812Z,51.84
2018-02-14T02:54:49.794Z,51.56
2018-02-14T02:55:49.780Z,50.15
2018-02-14T02:56:49.752Z,49.21
2018-02-14T02:57:49.730Z,48.64
2018-02-14T02:58:49.713Z,48.55
2018-02-14T02:59:49.686Z,48.83
2018-02-14T03:00:49.669Z,49.87
2018-02-14T03:01:49.645Z,50.24
2018-02-14T03:02:49.622Z,51.37
2018-02-14T03:03:49.606Z,51.28
2018-02-14T03:04:49.578Z,51.09
2018-02-14T03:05:49.560Z,50.34
2018-02-14T03:06:49.538Z,49.49
2018-02-14T03:07:49.518Z,49.21
2018-02-14T03:08:49.498Z,49.02
2018-02-14T03:09:49.474Z,50.15
2018-02-14T03:10:49.454Z,50.81
2018-02-14T03:11:49.436Z,50.81
2018-02-14T03:12:49.414Z,48.83
2018-02-14T03:13:49.386Z,46.00
2018-02-14T03:14:49.372Z,45.34
2018-02-14T03:15:49.353Z,44.59
2018-02-14T03:16:49.328Z,43.74
2018-02-14T03:17:49.306Z,43.36
2018-02-14T03:18:49.284Z,42.99
2018-02-14T03:19:49.265Z,43.93
2018-02-14T03:20:49.240Z,45.72
2018-02-14T03:21:49.224Z,47.13
2018-02-14T03:22:49.194Z,48.55
2018-02-14T03:23:49.178Z,48.36
2018-02-14T03:24:49.157Z,49.02
2018-02-14T03:25:49.138Z,50.24
2018-02-14T03:26:49.114Z,50.24
2018-02-14T03:27:49.094Z,49.49
2018-02-14T03:28:49.076Z,49.58
2018-02-14T03:29:49.054Z,49.40
2018-02-14T03:30:49.029Z,49.21
2018-02-14T03:31:49.002Z,48.74
2018-02-14T03:32:48.980Z,49.58
2018-02-14T03:33:48.966Z,50.34
2018-02-14T03:34:48.940Z,50.99
2018-02-14T03:35:48.926Z,50.52
2018-02-14T03:36:48.897Z,48.93
2018-02-14T03:37:48.878Z,48.36
2018-02-14T03:38:48.861Z,48.93
2018-02-14T03:39:48.838Z,49.11
2018-02-14T03:40:48.809Z,50.90
2018-02-14T03:41:48.791Z,51.56
2018-02-14T03:42:48.772Z,52.32
2018-02-14T03:43:48.748Z,52.88
2018-02-14T03:44:48.726Z,52.03
2018-02-14T03:45:48.710Z,50.62
2018-02-14T03:46:48.684Z,49.11
2018-02-14T03:47:48.668Z,47.89
2018-02-14T03:48:48.646Z,46.94
2018-02-14T03:49:48.624Z,47.04
2018-02-14T03:50:48.600Z,47.51
2018-02-14T03:51:48.582Z,47.32
2018-02-14T03:52:48.566Z,47.41
2018-02-14T03:53:48.538Z,47.41
2018-02-14T03:54:48.520Z,47.04
2018-02-14T03:55:48.496Z,44.78
2018-02-14T03:56:48.473Z,42.70
2018-02-14T03:57:48.456Z,42.61
2018-02-14T03:58:48.436Z,44.21
2018-02-14T03:59:48.414Z,46.94
2018-02-14T04:00:48.390Z,47.13
2018-02-14T04:01:48.368Z,47.13
2018-02-14T04:02:48.341Z,46.47
2018-02-14T04:03:48.324Z,47.13
2018-02-14T04:04:48.304Z,48.74
2018-02-14T04:05:48.284Z,47.70
2018-02-14T04:06:48.262Z,47.23
2018-02-14T04:07:48.240Z,47.32
2018-02-14T04:08:48.222Z,46.47
2018-02-14T04:09:48.212Z,46.00
2018-02-14T04:10:48.174Z,46.94
2018-02-14T04:11:48.153Z,47.23
2018-02-14T04:12:48.134Z,47.41
2018-02-14T04:13:48.113Z,48.45
2018-02-14T04:14:48.090Z,48.74
2018-02-14T04:15:48.070Z,48.64
2018-02-14T04:16:48.046Z,49.02
2018-02-14T04:17:48.026Z,48.74
2018-02-14T04:18:48.007Z,49.49
2018-02-14T04:19:47.980Z,49.49
2018-02-14T04:20:47.962Z,49.21
2018-02-14T04:21:47.944Z,48.93
2018-02-14T04:22:47.918Z,48.55
2018-02-14T04:23:47.896Z,49.30
2018-02-14T04:24:47.876Z,49.30
2018-02-14T04:25:47.860Z,48.93
2018-02-14T04:26:47.836Z,48.99
2018-02-14T04:27:47.814Z,48.90
2018-02-14T04:28:47.794Z,48.80
2018-02-14T04:29:47.768Z,48.99
2018-02-14T04:30:47.748Z,48.64
2018-02-14T04:31:47.726Z,48.80
2018-02-14T04:32:47.706Z,49.08
2018-02-14T04:33:47.689Z,49.75
2018-02-14T04:34:47.664Z,49.46
2018-02-14T04:35:47.643Z,48.33
2018-02-14T04:36:47.628Z,48.71
2018-02-14T04:37:47.598Z,48.52
2018-02-14T04:38:47.574Z,49.27
2018-02-14T04:39:47.558Z,49.84
2018-02-14T04:40:47.533Z,50.59
2018-02-14T04:41:47.516Z,50.31
2018-02-14T04:42:47.497Z,49.84
2018-02-14T04:43:47.470Z,49.84
2018-02-14T04:44:47.451Z,49.75
2018-02-14T04:45:47.428Z,49.18
2018-02-14T04:46:47.414Z,49.18
2018-02-14T04:47:47.392Z,48.52
2018-02-14T04:48:47.364Z,47.77
2018-02-14T04:49:47.368Z,46.92
2018-02-14T04:50:47.322Z,45.89
2018-02-14T04:51:47.300Z,45.98
2018-02-14T04:52:47.278Z,45.89
2018-02-14T04:53:47.261Z,46.36
2018-02-14T04:54:47.246Z,47.11
2018-02-14T04:55:47.218Z,47.77
2018-02-14T04:56:47.197Z,48.52
2018-02-14T04:57:47.170Z,49.56
2018-02-14T04:58:47.150Z,50.50
2018-02-14T04:59:47.127Z,50.78
2018-02-14T05:00:47.108Z,50.78
2018-02-14T05:01:47.084Z,50.59
2018-02-14T05:02:47.064Z,50.22
2018-02-14T05:03:47.041Z,50.03
2018-02-14T05:04:47.022Z,50.12
2018-02-14T05:05:47.001Z,50.50
2018-02-14T05:06:46.976Z,50.50
2018-02-14T05:07:46.959Z,50.97
2018-02-14T05:08:46.940Z,51.07
2018-02-14T05:09:46.915Z,50.97
2018-02-14T05:10:46.896Z,51.82
2018-02-14T05:11:46.877Z,51.73
2018-02-14T05:12:46.850Z,51.73
2018-02-14T05:13:46.829Z,52.01
2018-02-14T05:14:46.804Z,52.20
2018-02-14T05:15:46.788Z,51.82
2018-02-14T05:16:46.764Z,51.63
2018-02-14T05:17:46.746Z,51.54
2018-02-14T05:18:46.716Z,52.01
2018-02-14T05:19:46.696Z,51.54
2018-02-14T05:20:46.678Z,51.63
2018-02-14T05:21:46.656Z,51.44
2018-02-14T05:22:46.634Z,51.82
2018-02-14T05:23:46.608Z,51.35
2018-02-14T05:24:46.586Z,51.82
2018-02-14T05:25:46.565Z,52.39
2018-02-14T05:26:46.544Z,52.10
2018-02-14T05:27:46.526Z,51.92
2018-02-14T05:28:46.502Z,51.82
2018-02-14T05:29:46.482Z,52.10
2018-02-14T05:30:46.460Z,52.20
2018-02-14T05:31:46.434Z,52.76
2018-02-14T05:32:46.412Z,52.58
2018-02-14T05:33:46.396Z,53.05
2018-02-14T05:34:46.370Z,53.05
2018-02-14T05:35:46.350Z,52.76
2018-02-14T05:36:46.328Z,52.95
2018-02-14T05:37:46.314Z,53.61
2018-02-14T05:38:46.282Z,53.70
2018-02-14T05:39:46.266Z,53.33
2018-02-14T05:40:46.241Z,53.89
2018-02-14T05:41:46.218Z,53.61
2018-02-14T05:42:46.192Z,53.80
2018-02-14T05:43:46.175Z,53.33
2018-02-14T05:44:46.152Z,53.70
2018-02-14T05:45:46.128Z,53.52
2018-02-14T05:46:46.111Z,53.42
2018-02-14T05:47:46.091Z,53.70
2018-02-14T05:48:46.067Z,53.42
2018-02-14T05:49:46.047Z,53.23
2018-02-14T05:50:46.021Z,53.61
2018-02-14T05:51:46.000Z,53.14
2018-02-14T05:52:45.977Z,53.70
2018-02-14T05:53:45.958Z,53.33
2018-02-14T05:54:45.937Z,53.70
2018-02-14T05:55:45.913Z,53.33
2018-02-14T05:56:45.887Z,53.61
2018-02-14T05:57:45.870Z,53.70
2018-02-14T05:58:45.847Z,53.89
2018-02-14T05:59:45.847Z,54.36
2018-02-14T06:00:45.803Z,54.46
2018-02-14T06:01:45.785Z,54.46
2018-02-14T06:02:45.757Z,54.46
2018-02-14T06:03:45.735Z,54.36
2018-02-14T06:04:45.719Z,54.55
2018-02-14T06:05:45.696Z,55.11
2018-02-14T06:06:45.665Z,54.83
2018-02-14T06:07:45.647Z,54.83
2018-02-14T06:08:45.627Z,54.74
2018-02-14T06:09:45.605Z,54.83
2018-02-14T06:10:45.581Z,54.74
2018-02-14T06:11:45.557Z,54.64
2018-02-14T06:12:45.539Z,54.83
2018-02-14T06:13:45.519Z,54.83
2018-02-14T06:14:45.495Z,54.74
2018-02-14T06:15:45.472Z,54.93
2018-02-14T06:16:45.453Z,54.55
2018-02-14T06:17:45.427Z,55.02
2018-02-14T06:18:45.403Z,54.93
2018-02-14T06:19:45.380Z,54.74
2018-02-14T06:20:45.365Z,54.74
2018-02-14T06:21:45.335Z,54.93
2018-02-14T06:22:45.319Z,55.02
2018-02-14T06:23:45.301Z,54.93
2018-02-14T06:24:45.275Z,54.93
2018-02-14T06:25:45.251Z,54.83
2018-02-14T06:26:45.227Z,54.55
2018-02-14T06:27:45.209Z,54.46
2018-02-14T06:28:45.183Z,54.36
2018-02-14T06:29:45.161Z,54.46
2018-02-14T06:30:45.139Z,54.74
2018-02-14T06:31:45.115Z,55.02
2018-02-14T06:32:45.097Z,55.21
2018-02-14T06:33:45.073Z,55.40
2018-02-14T06:34:45.049Z,55.49
2018-02-14T06:35:45.031Z,55.96
2018-02-14T06:36:45.008Z,55.87
2018-02-14T06:37:44.989Z,55.96
2018-02-14T06:38:44.965Z,56.25
2018-02-14T06:39:44.940Z,55.96
2018-02-14T06:40:44.919Z,56.15
2018-02-14T06:41:44.894Z,56.25
2018-02-14T06:42:44.875Z,56.34
2018-02-14T06:43:44.845Z,56.34
2018-02-14T06:44:44.829Z,56.44
2018-02-14T06:45:44.809Z,56.25
2018-02-14T06:46:44.783Z,56.25
2018-02-14T06:47:44.767Z,55.87
2018-02-14T06:48:44.775Z,56.34
2018-02-14T06:49:44.723Z,56.06
2018-02-14T06:50:44.695Z,56.06
2018-02-14T06:51:44.671Z,56.25
2018-02-14T06:52:44.654Z,55.96
2018-02-14T06:53:44.627Z,55.87
2018-02-14T06:54:44.605Z,55.96
2018-02-14T06:55:44.583Z,56.44
2018-02-14T06:56:44.560Z,56.53
2018-02-14T06:57:44.543Z,55.87
2018-02-14T06:58:44.519Z,56.34
2018-02-14T06:59:44.497Z,56.25
2018-02-14T07:00:44.471Z,55.78
2018-02-14T07:01:44.446Z,55.87
2018-02-14T07:02:44.425Z,55.78
2018-02-14T07:03:44.406Z,55.96
2018-02-14T07:04:44.387Z,55.68
2018-02-14T07:05:44.358Z,55.87
2018-02-14T07:06:44.340Z,55.96
2018-02-14T07:07:44.315Z,55.87
2018-02-14T07:08:44.295Z,55.96
2018-02-14T07:09:44.271Z,56.06
2018-02-14T07:10:44.249Z,55.96
2018-02-14T07:11:44.229Z,55.87
2018-02-14T07:12:44.217Z,55.11
2018-02-14T07:13:44.187Z,54.83
2018-02-14T07:14:44.159Z,54.83
2018-02-14T07:15:44.133Z,54.55
2018-02-14T07:16:44.114Z,54.83
2018-02-14T07:17:44.095Z,55.11
2018-02-14T07:18:44.065Z,55.68
2018-02-14T07:19:44.048Z,55.96
2018-02-14T07:20:44.029Z,55.68
2018-02-14T07:21:44.003Z,55.02
2018-02-14T07:22:44.020Z,54.83
2018-02-14T07:23:43.959Z,54.83
2018-02-14T07:24:43.943Z,54.74
2018-02-14T07:25:43.915Z,54.93
2018-02-14T07:26:43.895Z,54.64
2018-02-14T07:27:43.871Z,54.93
2018-02-14T07:28:43.849Z,54.83
2018-02-14T07:29:43.827Z,54.74
2018-02-14T07:30:43.801Z,55.21
2018-02-14T07:31:43.784Z,54.83
2018-02-14T07:32:43.761Z,54.74
2018-02-14T07:33:43.740Z,54.74
2018-02-14T07:34:43.721Z,55.11
2018-02-14T07:35:43.695Z,55.11
2018-02-14T07:36:43.674Z,55.59
2018-02-14T07:37:43.647Z,55.87
2018-02-14T07:38:43.625Z,55.87
2018-02-14T07:39:43.607Z,56.34
2018-02-14T07:40:43.593Z,56.53
2018-02-14T07:41:43.569Z,56.44
2018-02-14T07:42:43.537Z,56.53
2018-02-14T07:43:43.515Z,56.25
2018-02-14T07:44:43.492Z,56.34
2018-02-14T07:45:43.471Z,56.25
2018-02-14T07:46:43.447Z,55.49
2018-02-14T07:47:43.425Z,54.74
2018-02-14T07:48:43.408Z,54.83
2018-02-14T07:49:43.385Z,54.55
2018-02-14T07:50:43.383Z,54.93
2018-02-14T07:51:43.335Z,54.74
2018-02-14T07:52:43.319Z,55.21
2018-02-14T07:53:43.291Z,54.83
2018-02-14T07:54:43.275Z,54.55
2018-02-14T07:55:43.247Z,54.27
2018-02-14T07:56:43.229Z,54.02
2018-02-14T07:57:43.209Z,52.88
2018-02-14T07:58:43.187Z,52.60
2018-02-14T07:59:43.163Z,52.79
2018-02-14T08:00:43.141Z,52.98
2018-02-14T08:01:43.123Z,53.07
2018-02-14T08:02:43.095Z,52.22
2018-02-14T08:03:43.081Z,52.03
2018-02-14T08:04:43.058Z,52.13
2018-02-14T08:05:43.033Z,51.66
2018-02-14T08:06:43.011Z,51.66
2018-02-14T08:07:42.989Z,50.71
2018-02-14T08:08:42.971Z,48.47
2018-02-14T08:09:42.949Z,48.66
2018-02-14T08:10:42.923Z,47.72
2018-02-14T08:11:42.901Z,47.91
2018-02-14T08:12:42.886Z,47.81
2018-02-14T08:13:42.859Z,47.53
2018-02-14T08:14:42.839Z,47.63
2018-02-14T08:15:42.821Z,47.44
2018-02-14T08:16:42.803Z,47.06
2018-02-14T08:17:42.780Z,47.06
2018-02-14T08:18:42.755Z,47.09
2018-02-14T08:19:42.741Z,47.37
2018-02-14T08:20:42.716Z,48.03
2018-02-14T08:21:42.696Z,47.94
2018-02-14T08:22:42.675Z,47.65
2018-02-14T08:23:42.655Z,47.18
2018-02-14T08:24:42.633Z,46.23
2018-02-14T08:25:42.617Z,46.33
2018-02-14T08:26:42.589Z,46.52
2018-02-14T08:27:42.574Z,46.99
2018-02-14T08:28:42.556Z,45.79
2018-02-14T08:29:42.533Z,45.29
2018-02-14T08:30:42.512Z,44.73
2018-02-14T08:31:42.489Z,44.73
2018-02-14T08:32:42.478Z,44.64
2018-02-14T08:33:42.456Z,44.54
2018-02-14T08:34:42.437Z,44.73
2018-02-14T08:35:42.419Z,44.54
2018-02-14T08:36:42.395Z,44.64
2018-02-14T08:37:42.373Z,44.07
2018-02-14T08:38:42.355Z,43.88
2018-02-14T08:39:42.340Z,43.59
2018-02-14T08:40:42.318Z,43.41
2018-02-14T08:41:42.304Z,43.43
2018-02-14T08:42:42.277Z,43.43
2018-02-14T08:43:42.259Z,43.33
2018-02-14T08:44:42.243Z,43.05
2018-02-14T08:45:42.223Z,42.48
2018-02-14T08:46:42.203Z,42.48
2018-02-14T08:47:42.190Z,42.01
2018-02-14T08:48:42.164Z,42.30
2018-02-14T08:49:42.148Z,42.22
2018-02-14T08:50:42.132Z,42.13
2018-02-14T08:51:42.108Z,42.13
2018-02-14T08:52:42.088Z,42.79
2018-02-14T08:53:42.066Z,42.97
2018-02-14T08:54:42.053Z,42.79
2018-02-14T08:55:42.032Z,42.50
2018-02-14T08:56:42.014Z,42.41
2018-02-14T08:57:41.990Z,43.19
2018-02-14T08:58:41.978Z,43.00
2018-02-14T08:59:41.957Z,41.96
2018-02-14T09:00:41.939Z,41.11
2018-02-14T09:01:41.922Z,39.12
2018-02-14T09:02:41.907Z,38.09
2018-02-14T09:03:41.892Z,37.90
2018-02-14T09:04:41.874Z,37.90
2018-02-14T09:05:41.850Z,38.29
2018-02-14T09:06:41.834Z,38.57
2018-02-14T09:07:41.820Z,38.57
2018-02-14T09:08:41.802Z,38.86
2018-02-14T09:09:41.778Z,37.92
2018-02-14T09:10:41.767Z,37.16
2018-02-14T09:11:41.748Z,36.87
2018-02-14T09:12:41.727Z,36.68
2018-02-14T09:13:41.712Z,36.31
2018-02-14T09:14:41.691Z,36.21
2018-02-14T09:15:41.679Z,36.31
2018-02-14T09:16:41.663Z,36.40
2018-02-14T09:17:41.639Z,36.33
2018-02-14T09:18:41.631Z,36.31
2018-02-14T09:19:41.609Z,36.59
2018-02-14T09:20:41.595Z,36.87
2018-02-14T09:21:41.581Z,36.97
2018-02-14T09:22:41.559Z,37.06
2018-02-14T09:23:41.541Z,36.68
2018-02-14T09:24:41.587Z,36.87
2018-02-14T09:25:41.512Z,37.18
2018-02-14T09:26:41.493Z,37.18
2018-02-14T09:27:41.483Z,36.99
2018-02-14T09:28:41.461Z,36.80
2018-02-14T09:29:41.443Z,36.52
2018-02-14T09:30:41.433Z,36.33
2018-02-14T09:31:41.413Z,35.95
2018-02-14T09:32:41.399Z,36.04
2018-02-14T09:33:41.382Z,35.57
2018-02-14T09:34:41.365Z,35.28
2018-02-14T09:35:41.349Z,34.34
2018-02-14T09:36:41.333Z,34.06
2018-02-14T09:37:41.319Z,34.06
2018-02-14T09:38:41.301Z,34.23
2018-02-14T09:39:41.289Z,35.27
2018-02-14T09:40:41.275Z,35.93
2018-02-14T09:41:41.259Z,35.55
2018-02-14T09:42:41.239Z,35.85
2018-02-14T09:43:41.228Z,36.52
2018-02-14T09:44:41.212Z,36.23
2018-02-14T09:45:41.200Z,35.47
2018-02-14T09:46:41.181Z,35.47
2018-02-14T09:47:41.165Z,35.39
2018-02-14T09:48:41.145Z,35.58
2018-02-14T09:49:41.133Z,35.96
2018-02-14T09:50:41.113Z,34.75
2018-02-14T09:51:41.100Z,33.90
2018-02-14T09:52:41.085Z,34.00
2018-02-14T09:53:41.075Z,33.81
2018-02-14T09:54:41.062Z,33.71
2018-02-14T09:55:41.048Z,33.14
2018-02-14T09:56:41.028Z,33.81
2018-02-14T09:57:41.009Z,33.52
2018-02-14T09:58:40.996Z,33.43
2018-02-14T09:59:40.982Z,33.73
2018-02-14T10:00:40.971Z,33.82
2018-02-14T10:01:40.956Z,33.35
2018-02-14T10:02:40.940Z,32.59
2018-02-14T10:03:40.920Z,31.83
2018-02-14T10:04:40.911Z,31.26
2018-02-14T10:05:40.893Z,30.60
2018-02-14T10:06:40.894Z,30.62
2018-02-14T10:07:40.866Z,30.52
2018-02-14T10:08:40.850Z,29.86
2018-02-14T10:09:40.842Z,29.86
2018-02-14T10:10:40.824Z,29.67
2018-02-14T10:11:40.807Z,30.14
2018-02-14T10:12:40.792Z,29.68
2018-02-14T10:13:40.782Z,27.59
2018-02-14T10:14:40.768Z,25.89
2018-02-14T10:15:40.765Z,24.75
2018-02-14T10:16:40.742Z,23.61
2018-02-14T10:17:40.726Z,23.80
2018-02-14T10:18:40.712Z,24.75
2018-02-14T10:19:40.700Z,25.49
2018-02-14T10:20:40.689Z,25.42
2018-02-14T10:21:40.674Z,24.65
2018-02-14T10:22:40.664Z,23.69
2018-02-14T10:23:40.648Z,23.03
2018-02-14T10:24:40.637Z,23.03
2018-02-14T10:25:40.623Z,22.85
2018-02-14T10:26:40.604Z,23.50
2018-02-14T10:27:40.592Z,23.79
2018-02-14T10:28:40.576Z,23.69
2018-02-14T10:29:40.560Z,22.94
2018-02-14T10:30:40.548Z,22.94
2018-02-14T10:31:40.544Z,22.75
2018-02-14T10:32:40.525Z,22.46
2018-02-14T10:33:40.512Z,21.99
2018-02-14T10:34:40.501Z,22.56
2018-02-14T10:35:40.484Z,22.75
2018-02-14T10:36:40.467Z,22.27
2018-02-14T10:37:40.460Z,22.85
2018-02-14T10:38:40.442Z,22.85
2018-02-14T10:39:40.437Z,22.85
2018-02-14T10:40:40.414Z,23.13
2018-02-14T10:41:40.402Z,22.94
2018-02-14T10:42:40.389Z,23.32
2018-02-14T10:43:40.378Z,23.32
2018-02-14T10:44:40.371Z,23.52
2018-02-14T10:45:40.354Z,23.71
2018-02-14T10:46:40.336Z,23.24
2018-02-14T10:47:40.350Z,23.61
2018-02-14T10:48:40.316Z,23.61
2018-02-14T10:49:40.296Z,23.80
2018-02-14T10:50:40.282Z,23.53
2018-02-14T10:51:40.275Z,23.72
2018-02-14T10:52:40.257Z,23.72
2018-02-14T10:53:40.244Z,23.72
2018-02-14T10:54:40.238Z,23.83
2018-02-14T10:55:40.222Z,23.16
2018-02-14T10:56:40.206Z,23.16
2018-02-14T10:57:40.194Z,23.18
2018-02-14T10:58:40.180Z,23.27
2018-02-14T10:59:40.166Z,23.74
2018-02-14T11:00:40.153Z,23.18
2018-02-14T11:01:40.145Z,22.89
2018-02-14T11:02:40.130Z,22.22
2018-02-14T11:03:40.115Z,22.03
2018-02-14T11:04:40.100Z,22.71
2018-02-14T11:05:40.096Z,22.80
2018-02-14T11:06:40.081Z,23.09
2018-02-14T11:07:40.070Z,23.28
2018-02-14T11:08:40.057Z,23.85
2018-02-14T11:09:40.042Z,23.86
2018-02-14T11:10:40.032Z,23.77
2018-02-14T11:11:40.020Z,23.86
2018-02-14T11:12:40.010Z,23.58
2018-02-14T11:13:39.989Z,23.20
2018-02-14T11:14:39.983Z,22.44
2018-02-14T11:15:39.975Z,21.58
2018-02-14T11:16:39.962Z,20.63
2018-02-14T11:17:39.947Z,20.15
2018-02-14T11:18:39.942Z,19.30
2018-02-14T11:19:39.958Z,19.59
2018-02-14T11:20:39.912Z,20.34
2018-02-14T11:21:39.895Z,19.87
2018-02-14T11:22:39.889Z,18.54
2018-02-14T11:23:39.881Z,17.50
2018-02-14T11:24:39.868Z,17.22
2018-02-14T11:25:39.854Z,16.64
2018-02-14T11:26:39.848Z,17.22
2018-02-14T11:27:39.834Z,16.83
2018-02-14T11:28:39.818Z,17.31
2018-02-14T11:29:39.814Z,18.26
2018-02-14T11:30:39.796Z,18.26
2018-02-14T11:31:39.791Z,17.79
2018-02-14T11:32:39.777Z,18.36
2018-02-14T11:33:39.768Z,18.73
2018-02-14T11:34:39.756Z,18.82
2018-02-14T11:35:39.745Z,18.73
2018-02-14T11:36:39.743Z,19.01
2018-02-14T11:37:39.724Z,18.73
2018-02-14T11:38:39.710Z,18.63
2018-02-14T11:39:39.704Z,19.50
2018-02-14T11:40:39.694Z,19.02
2018-02-14T11:41:39.676Z,18.35
2018-02-14T11:42:39.670Z,18.44
2018-02-14T11:43:39.658Z,18.82
2018-02-14T11:44:39.642Z,18.24
2018-02-14T11:45:39.641Z,18.24
2018-02-14T11:46:39.626Z,18.33
2018-02-14T11:47:39.618Z,18.52
2018-02-14T11:48:39.602Z,19.37
2018-02-14T11:49:39.592Z,19.85
2018-02-14T11:50:39.582Z,20.89
2018-02-14T11:51:39.572Z,21.28
2018-02-14T11:52:39.560Z,21.28
2018-02-14T11:53:39.546Z,20.89
2018-02-14T11:54:39.534Z,20.53
2018-02-14T11:55:39.524Z,20.81
2018-02-14T11:56:39.521Z,20.43
2018-02-14T11:57:39.502Z,20.53
2018-02-14T11:58:39.492Z,20.15
2018-02-14T11:59:39.478Z,19.59
2018-02-14T12:00:39.472Z,18.91
2018-02-14T12:01:39.458Z,19.10
2018-02-14T12:02:39.446Z,19.29
2018-02-14T12:03:39.438Z,19.30
2018-02-14T12:04:39.424Z,18.54
2018-02-14T12:05:39.410Z,19.01
2018-02-14T12:06:39.404Z,18.26
2018-02-14T12:07:39.394Z,18.16
2018-02-14T12:08:39.384Z,18.16
2018-02-14T12:09:39.372Z,18.84
2018-02-14T12:10:39.361Z,18.64
2018-02-14T12:11:39.344Z,18.26
2018-02-14T12:12:39.344Z,18.26
2018-02-14T12:13:39.328Z,18.36
2018-02-14T12:14:39.321Z,18.55
2018-02-14T12:15:39.302Z,17.80
2018-02-14T12:16:39.294Z,17.41
2018-02-14T12:17:39.281Z,18.27
2018-02-14T12:18:39.272Z,18.18
2018-02-14T12:19:39.300Z,17.32
2018-02-14T12:20:39.254Z,17.51
2018-02-14T12:21:39.242Z,17.51
2018-02-14T12:22:39.226Z,17.70
2018-02-14T12:23:39.219Z,17.32
2018-02-14T12:24:39.214Z,17.89
2018-02-14T12:25:39.200Z,17.80
2018-02-14T12:26:39.192Z,18.09
2018-02-14T12:27:39.178Z,18.66
2018-02-14T12:28:39.168Z,17.61
2018-02-14T12:29:39.163Z,17.80
2018-02-14T12:30:39.142Z,18.28
2018-02-14T12:31:39.138Z,17.33
2018-02-14T12:32:39.124Z,16.66
2018-02-14T12:33:39.116Z,16.19
2018-02-14T12:34:39.104Z,15.61
2018-02-14T12:35:39.098Z,16.00
2018-02-14T12:36:39.088Z,15.61
2018-02-14T12:37:39.076Z,16.00
2018-02-14T12:38:39.069Z,16.19
2018-02-14T12:39:39.059Z,16.47
2018-02-14T12:40:39.046Z,16.47
2018-02-14T12:41:39.034Z,16.85
2018-02-14T12:42:39.024Z,16.28
2018-02-14T12:43:39.024Z,16.00
2018-02-14T12:44:39.002Z,16.38
2018-02-14T12:45:38.990Z,16.48
2018-02-14T12:46:38.990Z,16.19
2018-02-14T12:47:38.978Z,15.72
2018-02-14T12:48:38.966Z,16.00
2018-02-14T12:49:38.952Z,16.01
2018-02-14T12:50:38.946Z,15.44
2018-02-14T12:51:38.938Z,15.24
2018-02-14T12:52:38.928Z,15.34